createdAt,value
2022-09-06T00:00:59.458Z,99.90
2022-09-06T00:03:47.272Z,99.90
2022-09-06T00:06:34.528Z,99.90
2022-09-06T00:09:22.123Z,99.90
2022-09-06T00:12:09.417Z,99.90
2022-09-06T00:14:56.869Z,99.90
2022-09-06T00:17:45.799Z,99.90
2022-09-06T00:20:34.686Z,99.90
2022-09-06T00:23:22.076Z,99.90
2022-09-06T00:26:09.536Z,99.90
2022-09-06T00:28:56.810Z,99.90
2022-09-06T00:31:44.171Z,99.90
2022-09-06T00:34:31.360Z,99.90
2022-09-06T00:37:18.749Z,99.90
2022-09-06T00:40:07.429Z,99.90
2022-09-06T00:42:54.840Z,99.90
2022-09-06T00:45:42.154Z,99.90
2022-09-06T00:48:29.628Z,99.90
2022-09-06T00:51:18.938Z,99.90
2022-09-06T00:54:08.572Z,99.90
2022-09-06T00:56:58.673Z,99.90
2022-09-06T00:59:47.782Z,99.90
2022-09-06T01:02:35.340Z,99.90
2022-09-06T01:05:25.680Z,99.90
2022-09-06T01:08:32.732Z,99.90
2022-09-06T01:11:37.956Z,99.90
2022-09-06T01:15:03.214Z,99.90
2022-09-06T01:18:10.555Z,99.90
2022-09-06T01:21:17.393Z,99.90
2022-09-06T01:24:08.774Z,99.90
2022-09-06T01:27:02.183Z,99.90
2022-09-06T01:30:05.393Z,99.90
2022-09-06T01:32:58.764Z,99.90
2022-09-06T01:35:55.500Z,99.90
2022-09-06T01:38:42.975Z,99.90
2022-09-06T01:41:31.302Z,99.90
2022-09-06T01:44:19.071Z,99.90
2022-09-06T01:47:36.666Z,99.90
2022-09-06T01:50:48.586Z,99.90
2022-09-06T01:53:42.143Z,99.90
2022-09-06T01:56:41.134Z,99.90
2022-09-06T01:59:57.716Z,99.90
2022-09-06T02:03:15.725Z,99.90
2022-09-06T02:06:09.574Z,99.90
2022-09-06T02:09:05.601Z,99.90
2022-09-06T02:12:01.222Z,99.90
2022-09-06T02:15:00.818Z,99.90
2022-09-06T02:17:51.511Z,99.90
2022-09-06T02:20:44.819Z,99.90
2022-09-06T02:23:35.375Z,99.90
2022-09-06T02:26:28.960Z,99.90
2022-09-06T02:29:17.304Z,99.90
2022-09-06T02:32:20.390Z,99.90
2022-09-06T02:35:10.868Z,99.90
2022-09-06T02:37:58.209Z,99.90
2022-09-06T02:40:47.522Z,99.90
2022-09-06T02:43:34.857Z,99.90
2022-09-06T02:46:23.691Z,99.90
2022-09-06T02:49:11.065Z,99.90
2022-09-06T02:51:58.251Z,99.90
2022-09-06T02:54:45.566Z,99.90
2022-09-06T02:57:33.031Z,99.90
2022-09-06T03:00:20.567Z,99.90
2022-09-06T03:03:08.177Z,99.90
2022-09-06T03:05:56.437Z,99.90
2022-09-06T03:08:43.779Z,99.90
2022-09-06T03:11:31.372Z,99.90
2022-09-06T03:14:19.977Z,99.90
2022-09-06T03:17:07.567Z,99.90
2022-09-06T03:19:54.942Z,99.90
2022-09-06T03:22:42.463Z,99.90
2022-09-06T03:25:30.088Z,99.90
2022-09-06T03:28:18.668Z,99.90
2022-09-06T03:31:05.929Z,99.90
2022-09-06T03:33:53.575Z,99.90
2022-09-06T03:36:41.080Z,99.90
2022-09-06T03:39:28.894Z,99.90
2022-09-06T03:42:16.441Z,99.90
2022-09-06T03:45:04.361Z,99.90
2022-09-06T03:47:51.597Z,99.90
2022-09-06T03:50:39.116Z,99.90
2022-09-06T03:53:28.152Z,99.90
2022-09-06T03:56:16.244Z,99.90
2022-09-06T03:59:04.200Z,99.90
2022-09-06T04:01:51.945Z,99.90
2022-09-06T04:04:39.016Z,99.90
2022-09-06T04:07:26.312Z,99.90
2022-09-06T04:10:13.948Z,99.90
2022-09-06T04:13:01.460Z,99.90
2022-09-06T04:15:49.583Z,99.90
2022-09-06T04:18:37.187Z,99.90
2022-09-06T04:21:24.703Z,99.90
2022-09-06T04:24:12.184Z,99.90
2022-09-06T04:26:59.718Z,99.90
2022-09-06T04:29:46.922Z,99.90
2022-09-06T04:32:34.276Z,99.90
2022-09-06T04:35:21.915Z,99.90
2022-09-06T04:38:09.899Z,99.90
2022-09-06T04:40:57.026Z,99.90
2022-09-06T04:43:44.283Z,99.90
2022-09-06T04:46:32.182Z,99.90
2022-09-06T04:49:19.737Z,99.90
2022-09-06T04:52:30.045Z,99.90
2022-09-06T04:55:15.791Z,99.90
2022-09-06T04:58:03.492Z,99.90
2022-09-06T05:00:51.473Z,99.90
2022-09-06T05:03:38.802Z,99.90
2022-09-06T05:06:26.683Z,99.90
2022-09-06T05:09:14.825Z,99.90
2022-09-06T05:12:02.523Z,99.90
2022-09-06T05:14:50.078Z,99.90
2022-09-06T05:17:37.644Z,99.90
2022-09-06T05:20:24.858Z,99.90
2022-09-06T05:23:12.427Z,99.90
2022-09-06T05:26:00.192Z,99.90
2022-09-06T05:28:47.616Z,99.90
2022-09-06T05:31:36.380Z,99.90
2022-09-06T05:34:23.644Z,99.90
2022-09-06T05:37:11.027Z,99.90
2022-09-06T05:40:00.040Z,99.90
2022-09-06T05:42:47.047Z,99.90
2022-09-06T05:45:34.428Z,99.90
2022-09-06T05:48:21.855Z,99.90
2022-09-06T05:51:14.322Z,99.90
2022-09-06T05:54:01.789Z,99.90
2022-09-06T05:56:49.458Z,99.90
2022-09-06T05:59:37.173Z,99.90
2022-09-06T06:02:24.780Z,99.90
2022-09-06T06:05:12.024Z,99.90
2022-09-06T06:07:59.623Z,99.90
2022-09-06T06:10:47.339Z,99.90
2022-09-06T06:13:36.481Z,99.90
2022-09-06T06:16:24.939Z,99.90
2022-09-06T06:19:12.524Z,99.90
2022-09-06T06:21:59.922Z,99.90
2022-09-06T06:24:47.411Z,99.90
2022-09-06T06:27:36.536Z,99.90
2022-09-06T06:30:24.020Z,99.90
2022-09-06T06:33:11.532Z,99.90
2022-09-06T06:36:03.748Z,99.90
2022-09-06T06:38:53.162Z,99.90
2022-09-06T06:41:40.705Z,99.90
2022-09-06T06:44:28.383Z,99.90
2022-09-06T06:47:15.975Z,99.90
2022-09-06T06:50:03.034Z,99.90
2022-09-06T06:52:50.444Z,99.90
2022-09-06T06:55:37.654Z,99.90
2022-09-06T06:58:25.539Z,99.90
2022-09-06T07:01:13.668Z,99.90
2022-09-06T07:04:01.451Z,99.90
2022-09-06T07:12:32.781Z,99.90
2022-09-06T07:15:20.563Z,99.90
2022-09-06T07:18:08.118Z,99.90
2022-09-06T07:26:36.394Z,99.90
2022-09-06T07:29:23.853Z,99.90
2022-09-06T07:32:11.269Z,99.90
2022-09-06T07:34:58.628Z,99.90
2022-09-06T07:37:57.766Z,99.90
2022-09-06T07:40:48.462Z,99.90
2022-09-06T07:43:36.497Z,99.90
2022-09-06T07:46:23.834Z,99.90
2022-09-06T07:49:11.012Z,99.90
2022-09-06T07:51:58.193Z,99.90
2022-09-06T07:54:45.310Z,99.90
2022-09-06T07:57:33.047Z,99.90
2022-09-06T08:00:20.333Z,99.90
2022-09-06T08:03:07.669Z,99.90
2022-09-06T08:06:10.987Z,99.90
2022-09-06T08:09:00.042Z,99.90
2022-09-06T08:11:35.424Z,99.90
2022-09-06T08:14:22.800Z,99.90
2022-09-06T08:17:10.358Z,99.90
2022-09-06T08:19:57.842Z,99.90
2022-09-06T08:22:45.164Z,99.90
2022-09-06T08:25:32.591Z,99.90
2022-09-06T08:28:19.989Z,99.90
2022-09-06T08:31:16.509Z,99.90
2022-09-06T08:34:03.911Z,99.90
2022-09-06T08:36:51.264Z,99.90
2022-09-06T08:39:38.349Z,99.90
2022-09-06T08:42:25.600Z,99.90
2022-09-06T08:45:16.788Z,99.90
2022-09-06T08:48:04.517Z,99.90
2022-09-06T08:50:55.116Z,99.90
2022-09-06T08:53:48.553Z,99.90
2022-09-06T08:56:44.683Z,99.90
2022-09-06T08:59:35.040Z,99.90
2022-09-06T09:02:23.378Z,99.90
2022-09-06T09:05:16.236Z,99.90
2022-09-06T09:08:18.615Z,99.90
2022-09-06T09:11:10.252Z,99.90
2022-09-06T09:14:06.895Z,99.90
2022-09-06T09:16:56.035Z,99.90
2022-09-06T09:19:43.619Z,99.90
2022-09-06T09:22:31.289Z,99.90
2022-09-06T09:25:21.834Z,99.90
2022-09-06T09:28:12.297Z,99.90
2022-09-06T09:30:59.994Z,99.90
2022-09-06T09:33:47.633Z,99.90
2022-09-06T09:36:34.999Z,99.90
2022-09-06T09:39:23.779Z,99.90
2022-09-06T09:42:10.823Z,99.90
2022-09-06T09:44:58.961Z,99.90
2022-09-06T09:47:46.708Z,99.90
2022-09-06T09:50:36.198Z,99.90
2022-09-06T09:53:26.076Z,99.90
2022-09-06T09:56:17.542Z,99.90
2022-09-06T09:59:10.611Z,99.90
2022-09-06T10:02:03.765Z,99.30
2022-09-06T10:04:53.934Z,99.60
2022-09-06T10:07:47.347Z,99.50
2022-09-06T10:10:37.747Z,98.60
2022-09-06T10:13:28.691Z,98.60
2022-09-06T10:16:16.046Z,98.50
2022-09-06T10:19:06.431Z,98.70
2022-09-06T10:21:57.288Z,97.60
2022-09-06T10:25:21.545Z,97.30
2022-09-06T10:28:32.400Z,97.20
2022-09-06T10:31:50.309Z,96.60
2022-09-06T10:35:05.222Z,97.10
2022-09-06T10:37:55.840Z,96.50
2022-09-06T10:41:02.962Z,95.90
2022-09-06T10:43:50.922Z,95.80
2022-09-06T10:46:40.861Z,95.30
2022-09-06T10:49:28.556Z,95.30
2022-09-06T10:52:19.216Z,94.90
2022-09-06T10:55:09.686Z,94.60
2022-09-06T10:58:17.988Z,94.40
2022-09-06T11:00:53.483Z,92.80
2022-09-06T11:04:04.141Z,93.30
2022-09-06T11:06:38.588Z,92.70
2022-09-06T11:09:34.927Z,92.90
2022-09-06T11:12:37.644Z,91.70
2022-09-06T11:15:27.921Z,91.60
2022-09-06T11:18:31.880Z,91.00
2022-09-06T11:21:45.167Z,90.80
2022-09-06T11:24:35.871Z,90.40
2022-09-06T11:27:25.865Z,89.70
2022-09-06T11:30:18.093Z,88.30
2022-09-06T11:33:20.327Z,85.70
2022-09-06T11:36:29.208Z,85.40
2022-09-06T11:42:42.753Z,82.70
2022-09-06T11:45:50.851Z,82.60
2022-09-06T11:48:57.745Z,79.50
2022-09-06T11:51:46.697Z,80.10
2022-09-06T11:54:40.156Z,79.80
2022-09-06T11:57:27.616Z,78.50
2022-09-06T12:00:24.348Z,79.60
2022-09-06T12:06:21.279Z,77.90
2022-09-06T12:09:29.625Z,76.30
2022-09-06T12:12:36.404Z,76.00
2022-09-06T12:15:46.253Z,75.50
2022-09-06T12:18:46.111Z,72.00
2022-09-06T12:21:42.577Z,71.80
2022-09-06T12:24:38.870Z,72.40
2022-09-06T12:27:29.164Z,73.60
2022-09-06T12:30:20.105Z,71.30
2022-09-06T12:33:10.796Z,72.40
2022-09-06T12:36:16.505Z,70.00
2022-09-06T12:39:07.127Z,69.60
2022-09-06T12:41:57.526Z,70.70
2022-09-06T12:44:50.394Z,69.30
2022-09-06T12:47:41.326Z,67.30
2022-09-06T12:50:30.731Z,65.50
2022-09-06T12:53:23.739Z,66.80
2022-09-06T12:56:13.343Z,65.90
2022-09-06T12:59:24.504Z,66.90
2022-09-06T13:02:14.672Z,66.50
2022-09-06T13:05:07.962Z,66.10
2022-09-06T13:07:58.144Z,66.60
2022-09-06T13:10:47.478Z,66.10
2022-09-06T13:13:35.075Z,65.30
2022-09-06T13:16:25.187Z,65.70
2022-09-06T13:19:36.828Z,64.20
2022-09-06T13:22:42.461Z,63.50
2022-09-06T13:25:29.934Z,64.10
2022-09-06T13:28:32.706Z,63.40
2022-09-06T13:31:22.394Z,64.20
2022-09-06T13:34:09.615Z,63.80
2022-09-06T13:37:06.302Z,63.40
2022-09-06T13:39:53.994Z,63.00
2022-09-06T13:42:41.334Z,63.30
2022-09-06T13:45:30.899Z,61.90
2022-09-06T13:48:29.132Z,62.80
2022-09-06T13:51:08.376Z,62.80
2022-09-06T13:54:07.709Z,61.50
2022-09-06T13:56:55.918Z,61.00
2022-09-06T13:59:43.497Z,59.60
2022-09-06T14:02:31.336Z,59.80
2022-09-06T14:05:18.654Z,60.10
2022-09-06T14:08:06.425Z,60.20
2022-09-06T14:10:53.774Z,60.60
2022-09-06T14:13:41.220Z,62.80
2022-09-06T14:16:28.546Z,61.10
2022-09-06T14:19:16.063Z,59.30
2022-09-06T14:22:04.952Z,59.40
2022-09-06T14:24:52.047Z,59.30
2022-09-06T14:27:38.900Z,60.10
2022-09-06T14:30:25.983Z,60.10
2022-09-06T14:33:13.044Z,60.40
2022-09-06T14:36:00.340Z,59.60
2022-09-06T14:38:49.105Z,59.40
2022-09-06T14:41:38.637Z,59.10
2022-09-06T14:44:25.893Z,58.00
2022-09-06T14:47:13.643Z,58.30
2022-09-06T14:50:02.039Z,58.30
2022-09-06T14:52:49.663Z,58.50
2022-09-06T14:55:38.018Z,58.30
2022-09-06T14:58:25.927Z,57.80
2022-09-06T15:01:15.971Z,58.40
2022-09-06T15:04:04.788Z,57.40
2022-09-06T15:06:51.661Z,57.20
2022-09-06T15:09:38.790Z,58.40
2022-09-06T15:12:26.459Z,59.20
2022-09-06T15:15:14.007Z,59.50
2022-09-06T15:18:01.320Z,60.00
2022-09-06T15:20:49.223Z,60.50
2022-09-06T15:23:36.849Z,59.60
2022-09-06T15:26:24.560Z,59.80
2022-09-06T15:29:12.666Z,61.10
2022-09-06T15:32:00.947Z,60.60
2022-09-06T15:34:48.298Z,61.10
2022-09-06T15:37:35.651Z,61.80
2022-09-06T15:40:24.864Z,62.00
2022-09-06T15:43:12.039Z,62.80
2022-09-06T15:46:01.029Z,63.50
2022-09-06T15:48:53.696Z,64.20
2022-09-06T15:51:43.181Z,65.20
2022-09-06T15:54:49.100Z,66.00
2022-09-06T15:57:36.952Z,66.40
2022-09-06T16:00:24.641Z,63.90
2022-09-06T16:03:12.262Z,63.70
2022-09-06T16:09:06.244Z,64.40
2022-09-06T16:11:54.253Z,65.10
2022-09-06T16:14:41.470Z,65.60
2022-09-06T16:17:30.197Z,66.20
2022-09-06T16:20:17.305Z,66.10
2022-09-06T16:23:04.628Z,67.60
2022-09-06T16:25:55.183Z,67.50
2022-09-06T16:28:42.901Z,67.30
2022-09-06T16:31:30.486Z,67.00
2022-09-06T16:34:18.172Z,66.00
2022-09-06T16:37:07.578Z,64.80
2022-09-06T16:39:55.893Z,63.70
2022-09-06T16:42:43.952Z,63.00
2022-09-06T16:45:32.082Z,61.60
2022-09-06T16:48:19.296Z,61.40
2022-09-06T16:51:29.913Z,61.10
2022-09-06T16:54:18.626Z,61.00
2022-09-06T16:57:06.124Z,63.00
2022-09-06T16:59:53.160Z,66.50
2022-09-06T17:02:45.034Z,73.30
2022-09-06T17:05:30.034Z,78.70
2022-09-06T17:08:17.465Z,83.50
2022-09-06T17:11:10.838Z,87.50
2022-09-06T17:13:58.534Z,93.80
2022-09-06T17:17:04.075Z,99.90
2022-09-06T17:19:51.597Z,99.90
2022-09-06T17:22:39.154Z,99.90
2022-09-06T17:25:26.784Z,99.90
2022-09-06T17:28:14.104Z,99.90
2022-09-06T17:31:05.489Z,99.90
2022-09-06T17:33:53.318Z,99.90
2022-09-06T17:36:40.803Z,99.90
2022-09-06T17:39:28.272Z,99.90
2022-09-06T17:42:15.722Z,99.90
2022-09-06T17:45:03.461Z,99.90
2022-09-06T17:47:50.752Z,99.90
2022-09-06T17:50:39.898Z,99.90
2022-09-06T17:53:27.428Z,99.90
2022-09-06T17:56:17.571Z,99.90
2022-09-06T17:59:15.881Z,99.90
2022-09-06T18:02:03.209Z,99.90
2022-09-06T18:04:51.215Z,99.90
2022-09-06T18:07:38.789Z,99.90
2022-09-06T18:10:26.339Z,99.90
2022-09-06T18:13:13.562Z,99.90
2022-09-06T18:16:02.809Z,99.90
2022-09-06T18:18:55.798Z,99.90
2022-09-06T18:21:43.293Z,99.90
2022-09-06T18:24:30.641Z,99.90
2022-09-06T18:27:18.363Z,99.90
2022-09-06T18:30:11.634Z,99.90
2022-09-06T18:32:55.266Z,99.90
2022-09-06T18:35:42.847Z,99.90
2022-09-06T18:38:30.040Z,99.90
2022-09-06T18:41:35.553Z,99.90
2022-09-06T18:44:23.288Z,99.90
2022-09-06T18:47:12.361Z,99.90
2022-09-06T18:50:00.171Z,99.90
2022-09-06T18:52:47.452Z,99.90
2022-09-06T18:55:41.559Z,99.90
2022-09-06T18:58:28.702Z,99.90
2022-09-06T19:01:18.204Z,99.90
2022-09-06T19:04:07.293Z,99.90
2022-09-06T19:06:54.992Z,99.90
2022-09-06T19:09:42.392Z,99.90
2022-09-06T19:12:29.486Z,99.90
2022-09-06T19:15:17.097Z,99.90
2022-09-06T19:18:04.267Z,99.90
2022-09-06T19:21:15.305Z,99.90
2022-09-06T19:24:05.927Z,99.90
2022-09-06T19:26:55.024Z,99.90
2022-09-06T19:29:42.770Z,99.90
2022-09-06T19:32:30.171Z,99.90
2022-09-06T19:35:19.122Z,99.90
2022-09-06T19:38:06.048Z,99.90
2022-09-06T19:40:56.187Z,99.90
2022-09-06T19:43:47.352Z,99.90
2022-09-06T19:46:35.155Z,99.90
2022-09-06T19:49:23.185Z,99.90
2022-09-06T19:52:11.485Z,99.90
2022-09-06T19:54:59.299Z,99.90
2022-09-06T19:57:46.607Z,99.90
2022-09-06T20:00:35.653Z,99.90
2022-09-06T20:03:22.964Z,99.90
2022-09-06T20:06:10.880Z,99.90
2022-09-06T20:09:02.778Z,99.90
2022-09-06T20:11:49.805Z,99.90
2022-09-06T20:14:37.206Z,99.90
2022-09-06T20:17:34.001Z,99.90
2022-09-06T20:20:15.332Z,99.90
2022-09-06T20:23:04.081Z,99.90
2022-09-06T20:26:00.554Z,99.90
2022-09-06T20:28:48.740Z,99.90
2022-09-06T20:31:37.480Z,99.90
2022-09-06T20:34:25.008Z,99.90
2022-09-06T20:37:14.548Z,99.90
2022-09-06T20:40:01.962Z,99.90
2022-09-06T20:42:49.419Z,99.90
2022-09-06T20:45:36.963Z,99.90
2022-09-06T20:48:24.212Z,99.90
2022-09-06T20:51:19.362Z,99.90
2022-09-06T20:54:06.745Z,99.90
2022-09-06T20:56:55.129Z,99.90
2022-09-06T20:59:42.651Z,99.90
2022-09-06T21:02:31.172Z,99.90
2022-09-06T21:05:18.873Z,99.90
2022-09-06T21:08:06.039Z,99.90
2022-09-06T21:10:56.360Z,99.90
2022-09-06T21:13:44.511Z,99.90
2022-09-06T21:16:32.518Z,99.90
2022-09-06T21:19:20.260Z,99.90
2022-09-06T21:22:07.694Z,99.90
2022-09-06T21:24:55.172Z,99.90
2022-09-06T21:27:42.685Z,99.90
2022-09-06T21:30:30.245Z,99.90
2022-09-06T21:33:17.723Z,99.90
2022-09-06T21:36:07.760Z,99.90
2022-09-06T21:38:55.979Z,99.90
2022-09-06T21:41:44.985Z,99.90
2022-09-06T21:44:35.033Z,99.90
2022-09-06T21:47:22.568Z,99.90
2022-09-06T21:50:12.964Z,99.90
2022-09-06T21:53:00.535Z,99.90
2022-09-06T21:55:47.877Z,99.90
2022-09-06T21:58:35.666Z,99.90
2022-09-06T22:01:25.480Z,99.90
2022-09-06T22:04:13.613Z,99.90
2022-09-06T22:07:02.161Z,99.90
2022-09-06T22:09:49.760Z,99.90
2022-09-06T22:12:37.275Z,99.90
2022-09-06T22:15:24.921Z,99.90
2022-09-06T22:18:13.527Z,99.90
2022-09-06T22:21:06.531Z,99.90
2022-09-06T22:23:56.011Z,99.90
2022-09-06T22:26:46.197Z,99.90
2022-09-06T22:29:33.560Z,99.90
2022-09-06T22:32:21.338Z,99.90
2022-09-06T22:35:09.886Z,99.90
2022-09-06T22:37:57.489Z,99.90
2022-09-06T22:40:45.240Z,99.90
2022-09-06T22:43:33.054Z,99.90
2022-09-06T22:46:20.835Z,99.90
2022-09-06T22:49:08.115Z,99.90
2022-09-06T22:51:55.757Z,99.90
2022-09-06T22:54:43.204Z,99.90
2022-09-06T22:57:30.441Z,99.90
2022-09-06T23:02:42.224Z,99.90
2022-09-06T23:05:34.158Z,99.90
2022-09-06T23:08:31.324Z,99.90
2022-09-06T23:11:19.658Z,99.90
2022-09-06T23:14:07.080Z,99.90
2022-09-06T23:16:54.262Z,99.90
2022-09-06T23:19:41.843Z,99.90
2022-09-06T23:22:29.409Z,99.90
2022-09-06T23:25:16.546Z,99.90
2022-09-06T23:28:03.938Z,99.90
2022-09-06T23:30:51.398Z,99.90
2022-09-06T23:33:39.437Z,99.90
2022-09-06T23:36:27.183Z,99.90
2022-09-06T23:39:14.539Z,99.90
2022-09-06T23:42:02.320Z,99.90
2022-09-06T23:44:52.072Z,99.90
2022-09-06T23:47:39.201Z,99.90
2022-09-06T23:50:26.768Z,99.90
2022-09-06T23:53:18.877Z,99.90
2022-09-06T23:56:07.154Z,99.90
2022-09-06T23:58:54.966Z,99.90
